Time;durP1;ratioP1;P1;durP2;ratioP2;P2;SDS_P1;SDS_P2;PMS_P1;PMS_P2;Temp;Humidity;BMP_temperature;BMP_pressure;BME280_temperature;BME280_humidity;BME280_pressure;Samples;Min_cycle;Max_cycle;Signal;HPM_P1;HPM_P2
2022/07/14 00:02:05;;;;;;;26.65;10.13;;;;;;;;;;5032323;28;20029;-61
2022/07/14 00:04:31;;;;;;;23.98;10.30;;;;;;;;;;5032357;28;20032;-61
2022/07/14 00:06:57;;;;;;;21.17;9.90;;;;;;;;;;5030999;28;20112;-61
2022/07/14 00:09:23;;;;;;;23.80;10.05;;;;;;;;;;5031993;28;20068;-59
2022/07/14 00:11:49;;;;;;;26.60;10.82;;;;;;;;;;5032274;28;20029;-61
2022/07/14 00:14:15;;;;;;;30.30;10.70;;;;;;;;;;5032167;28;20025;-60
2022/07/14 00:16:41;;;;;;;20.02;10.05;;;;;;;;;;5031879;28;20548;-60
2022/07/14 00:19:07;;;;;;;23.30;9.93;;;;;;;;;;5030565;28;20123;-61
2022/07/14 00:21:33;;;;;;;24.50;10.43;;;;;;;;;;5030772;28;20061;-61
2022/07/14 00:23:59;;;;;;;25.33;10.10;;;;;;;;;;5030682;28;20018;-61
2022/07/14 00:26:31;;;;;;;22.33;11.35;;;;;;;;;;5030987;28;20033;-58
2022/07/14 00:28:58;;;;;;;21.50;9.98;;;;;;;;;;5031736;28;20398;-61
2022/07/14 00:31:24;;;;;;;25.13;11.00;;;;;;;;;;5032001;28;20025;-59
2022/07/14 00:33:50;;;;;;;23.73;9.85;;;;;;;;;;5032311;28;20036;-59
2022/07/14 00:36:17;;;;;;;26.02;9.80;;;;;;;;;;5031935;28;20486;-61
2022/07/14 00:38:43;;;;;;;25.17;11.23;;;;;;;;;;5031456;28;20112;-61
2022/07/14 00:41:09;;;;;;;24.15;10.20;;;;;;;;;;5031780;28;20030;-61
2022/07/14 00:43:35;;;;;;;22.45;10.07;;;;;;;;;;5031941;28;20022;-60
2022/07/14 00:46:01;;;;;;;23.65;9.95;;;;;;;;;;5031802;28;20025;-61
2022/07/14 00:48:27;;;;;;;27.17;10.32;;;;;;;;;;5031608;28;20025;-59
2022/07/14 00:50:53;;;;;;;24.70;10.63;;;;;;;;;;5031677;28;20021;-59
2022/07/14 00:53:19;;;;;;;23.52;10.02;;;;;;;;;;5030530;28;20060;-57
2022/07/14 00:55:45;;;;;;;25.27;9.52;;;;;;;;;;5032015;28;20030;-60
2022/07/14 00:58:11;;;;;;;23.45;10.00;;;;;;;;;;5030036;28;20029;-60
2022/07/14 01:00:38;;;;;;;27.27;10.75;;;;;;;;;;5031724;28;20070;-60
2022/07/14 01:03:05;;;;;;;19.33;9.85;;;;;;;;;;5031767;28;20026;-59
2022/07/14 01:05:31;;;;;;;29.75;11.52;;;;;;;;;;5031592;28;20018;-61
2022/07/14 01:07:57;;;;;;;21.52;9.43;;;;;;;;;;5029450;28;20030;-59
2022/07/14 01:10:23;;;;;;;23.90;9.85;;;;;;;;;;5030403;28;20032;-61
2022/07/14 01:12:49;;;;;;;28.67;10.88;;;;;;;;;;5031752;28;20026;-58
2022/07/14 01:15:17;;;;;;;24.00;9.80;;;;;;;;;;5031786;28;20061;-60
2022/07/14 01:17:44;;;;;;;29.30;10.98;;;;;;;;;;5029974;28;20029;-59
2022/07/14 01:20:10;;;;;;;25.08;9.85;;;;;;;;;;5031567;28;20384;-57
2022/07/14 01:22:36;;;;;;;23.02;9.70;;;;;;;;;;5030290;28;20021;-59
2022/07/14 01:25:06;;;;;;;28.63;10.30;;;;;;;;;;5031774;28;20025;-59
2022/07/14 01:27:33;;;;;;;24.98;10.50;;;;;;;;;;5034734;28;20037;-60
2022/07/14 01:29:59;;;;;;;30.30;11.70;;;;;;;;;;5035131;28;20049;-61
2022/07/14 01:32:25;;;;;;;22.33;9.63;;;;;;;;;;5034890;28;20060;-61
2022/07/14 01:34:52;;;;;;;30.63;10.43;;;;;;;;;;5034930;28;20117;-61
2022/07/14 01:37:18;;;;;;;25.73;10.10;;;;;;;;;;5034552;28;20024;-60
2022/07/14 01:39:44;;;;;;;26.45;10.88;;;;;;;;;;5033608;28;20056;-61
2022/07/14 01:42:11;;;;;;;24.10;9.93;;;;;;;;;;5034780;28;20057;-61
2022/07/14 01:44:37;;;;;;;25.48;10.18;;;;;;;;;;5034915;28;20067;-61
2022/07/14 01:47:03;;;;;;;23.58;10.30;;;;;;;;;;5034524;28;20029;-61
2022/07/14 01:49:29;;;;;;;24.70;10.35;;;;;;;;;;5034474;28;20021;-61
2022/07/14 01:51:55;;;;;;;22.90;9.73;;;;;;;;;;5034614;28;20033;-60
2022/07/14 01:54:21;;;;;;;26.23;10.10;;;;;;;;;;5034700;28;20030;-61
2022/07/14 01:56:47;;;;;;;23.40;10.65;;;;;;;;;;5033255;28;20143;-59
2022/07/14 01:59:13;;;;;;;25.88;10.30;;;;;;;;;;5032878;28;20025;-61
2022/07/14 02:01:39;;;;;;;27.40;10.88;;;;;;;;;;5034336;28;20029;-61
2022/07/14 02:04:05;;;;;;;25.38;10.48;;;;;;;;;;5034695;28;20075;-60
2022/07/14 02:06:31;;;;;;;22.00;9.23;;;;;;;;;;5034353;28;20473;-60
2022/07/14 02:08:58;;;;;;;21.23;9.70;;;;;;;;;;5034221;28;20056;-60
2022/07/14 02:14:09;;;;;;;26.35;9.85;;;;;;;;;;5034435;28;20043;-61
2022/07/14 02:16:35;;;;;;;30.55;10.35;;;;;;;;;;5034086;28;20542;-58
2022/07/14 02:19:01;;;;;;;23.52;9.70;;;;;;;;;;5033977;28;20029;-59
2022/07/14 02:21:27;;;;;;;24.95;11.25;;;;;;;;;;5034287;28;20049;-60
2022/07/14 02:23:54;;;;;;;22.70;10.95;;;;;;;;;;5032817;28;20091;-59
2022/07/14 02:26:20;;;;;;;24.80;10.63;;;;;;;;;;5032553;28;20044;-61
2022/07/14 02:28:47;;;;;;;25.40;10.20;;;;;;;;;;5034207;28;20397;-61
2022/07/14 02:31:13;;;;;;;21.67;9.85;;;;;;;;;;5033955;28;20100;-61
2022/07/14 02:33:40;;;;;;;22.05;10.32;;;;;;;;;;5033711;28;20030;-56
2022/07/14 02:36:06;;;;;;;27.75;10.10;;;;;;;;;;5032421;28;20399;-61
2022/07/14 02:38:33;;;;;;;24.27;11.40;;;;;;;;;;5033378;28;20029;-61
2022/07/14 02:40:59;;;;;;;22.05;10.25;;;;;;;;;;5033721;28;20523;-61
2022/07/14 02:43:26;;;;;;;20.88;9.65;;;;;;;;;;5033449;28;20096;-61
2022/07/14 02:45:52;;;;;;;24.00;10.00;;;;;;;;;;5033793;28;20096;-58
2022/07/14 02:48:18;;;;;;;33.22;10.88;;;;;;;;;;5033372;28;20503;-58
2022/07/14 02:50:44;;;;;;;27.17;11.13;;;;;;;;;;5033488;28;20120;-60
2022/07/14 02:53:11;;;;;;;23.05;10.82;;;;;;;;;;5033541;28;20310;-61
2022/07/14 02:55:37;;;;;;;27.25;11.77;;;;;;;;;;5033614;28;20224;-60
2022/07/14 02:58:06;;;;;;;23.20;10.48;;;;;;;;;;5031671;28;20411;-59
2022/07/14 03:00:32;;;;;;;23.50;10.75;;;;;;;;;;5032122;28;20021;-60
2022/07/14 03:03:00;;;;;;;33.05;10.50;;;;;;;;;;5033440;28;20095;-61
2022/07/14 03:05:26;;;;;;;24.75;10.45;;;;;;;;;;5033208;28;20159;-60
2022/07/14 03:07:52;;;;;;;27.75;10.30;;;;;;;;;;5032822;28;20098;-60
2022/07/14 03:10:18;;;;;;;32.72;10.50;;;;;;;;;;5032934;28;20084;-61
2022/07/14 03:12:44;;;;;;;26.02;11.00;;;;;;;;;;5033135;28;20026;-60
2022/07/14 03:15:10;;;;;;;23.08;10.52;;;;;;;;;;5033075;28;20029;-61
2022/07/14 03:17:38;;;;;;;23.85;10.85;;;;;;;;;;5032799;28;20021;-60
2022/07/14 03:20:06;;;;;;;21.45;9.60;;;;;;;;;;5033002;28;20018;-58
2022/07/14 03:22:32;;;;;;;23.77;9.95;;;;;;;;;;5033112;28;20029;-58
2022/07/14 03:24:58;;;;;;;23.73;9.75;;;;;;;;;;5032973;28;20018;-58
2022/07/14 03:27:25;;;;;;;20.08;9.82;;;;;;;;;;5032391;28;20112;-60
2022/07/14 03:29:51;;;;;;;24.70;11.13;;;;;;;;;;5032844;28;20087;-59
2022/07/14 03:32:17;;;;;;;22.92;10.18;;;;;;;;;;5032690;28;20033;-60
2022/07/14 03:34:43;;;;;;;27.08;10.65;;;;;;;;;;5032793;28;20083;-61
2022/07/14 03:37:09;;;;;;;24.67;11.05;;;;;;;;;;5032573;28;20045;-58
2022/07/14 03:39:35;;;;;;;29.45;10.50;;;;;;;;;;5032475;28;20021;-60
2022/07/14 03:42:01;;;;;;;22.60;10.48;;;;;;;;;;5032691;28;20064;-62
2022/07/14 03:44:27;;;;;;;25.30;10.30;;;;;;;;;;5032710;28;20045;-61
2022/07/14 03:46:53;;;;;;;25.40;10.30;;;;;;;;;;5032469;28;20470;-59
2022/07/14 03:49:19;;;;;;;24.42;10.60;;;;;;;;;;5031903;28;20032;-62
2022/07/14 03:51:45;;;;;;;24.45;9.52;;;;;;;;;;5032558;28;20037;-59
2022/07/14 03:54:11;;;;;;;26.88;11.88;;;;;;;;;;5032315;28;20025;-62
2022/07/14 03:56:37;;;;;;;24.83;10.63;;;;;;;;;;5031984;28;20021;-62
2022/07/14 03:59:04;;;;;;;25.67;10.85;;;;;;;;;;5031323;28;20111;-60
2022/07/14 04:01:30;;;;;;;25.83;10.30;;;;;;;;;;5030638;28;20044;-60
2022/07/14 04:03:56;;;;;;;23.50;9.77;;;;;;;;;;5032375;28;20021;-61
2022/07/14 04:06:22;;;;;;;24.92;9.90;;;;;;;;;;5032179;28;20371;-60
2022/07/14 04:08:48;;;;;;;26.08;10.70;;;;;;;;;;5031811;28;20032;-60
2022/07/14 04:11:14;;;;;;;24.20;10.77;;;;;;;;;;5032313;28;20423;-60
2022/07/14 04:13:41;;;;;;;22.35;10.18;;;;;;;;;;5032300;28;20440;-60
2022/07/14 04:16:07;;;;;;;23.10;9.75;;;;;;;;;;5032006;28;20036;-61
2022/07/14 04:18:33;;;;;;;21.42;10.90;;;;;;;;;;5031904;28;20022;-59
2022/07/14 04:20:59;;;;;;;20.73;9.95;;;;;;;;;;5030994;28;20425;-59
2022/07/14 04:23:25;;;;;;;27.85;11.40;;;;;;;;;;5030955;28;20056;-62
2022/07/14 04:25:51;;;;;;;24.23;10.25;;;;;;;;;;5032206;28;20453;-61
2022/07/14 04:28:18;;;;;;;22.92;10.50;;;;;;;;;;5031578;28;20065;-62
2022/07/14 04:30:44;;;;;;;31.67;13.13;;;;;;;;;;5031998;28;20112;-61
2022/07/14 04:33:10;;;;;;;22.00;10.68;;;;;;;;;;5030634;28;20465;-60
2022/07/14 04:35:36;;;;;;;24.00;10.82;;;;;;;;;;5031761;28;20393;-61
2022/07/14 04:38:03;;;;;;;24.63;11.93;;;;;;;;;;5031380;28;20029;-62
2022/07/14 04:40:29;;;;;;;23.05;10.35;;;;;;;;;;5030614;28;20024;-61
2022/07/14 04:42:55;;;;;;;26.08;11.15;;;;;;;;;;5031907;28;20022;-62
2022/07/14 04:45:22;;;;;;;27.58;11.30;;;;;;;;;;5030354;28;20022;-61
2022/07/14 04:47:48;;;;;;;24.70;11.85;;;;;;;;;;5031040;28;20013;-62
2022/07/14 04:52:59;;;;;;;27.67;15.05;;;;;;;;;;5031511;28;20075;-63
2022/07/14 04:55:25;;;;;;;30.35;12.90;;;;;;;;;;5031593;28;20104;-62
2022/07/14 04:57:51;;;;;;;24.20;11.98;;;;;;;;;;5031085;28;20443;-60
2022/07/14 05:00:17;;;;;;;25.35;11.50;;;;;;;;;;5032136;28;20188;-61
2022/07/14 05:02:43;;;;;;;31.52;14.80;;;;;;;;;;5035146;28;20097;-61
2022/07/14 05:05:10;;;;;;;30.75;13.70;;;;;;;;;;5035342;28;20079;-60
2022/07/14 05:07:36;;;;;;;22.00;11.25;;;;;;;;;;5035020;28;20256;-60
2022/07/14 05:10:03;;;;;;;26.45;13.48;;;;;;;;;;5034053;28;20080;-60
2022/07/14 05:12:29;;;;;;;31.15;12.38;;;;;;;;;;5035128;28;20022;-61
2022/07/14 05:14:56;;;;;;;28.83;12.63;;;;;;;;;;5034905;28;20030;-61
2022/07/14 05:17:22;;;;;;;22.02;12.20;;;;;;;;;;5034537;28;20025;-61
2022/07/14 05:19:49;;;;;;;31.17;12.65;;;;;;;;;;5035030;28;20025;-59
2022/07/14 05:22:16;;;;;;;20.70;10.93;;;;;;;;;;5034021;28;20029;-60
2022/07/14 05:24:42;;;;;;;26.95;11.05;;;;;;;;;;5035248;28;20072;-61
2022/07/14 05:27:08;;;;;;;30.00;13.00;;;;;;;;;;5034585;28;20440;-56
2022/07/14 05:29:34;;;;;;;26.85;12.60;;;;;;;;;;5034884;28;20048;-61
2022/07/14 05:32:00;;;;;;;27.23;11.82;;;;;;;;;;5033624;28;20393;-58
2022/07/14 05:34:26;;;;;;;28.42;11.57;;;;;;;;;;5035118;28;20033;-60
2022/07/14 05:36:52;;;;;;;24.48;12.15;;;;;;;;;;5034670;28;20481;-59
2022/07/14 05:39:18;;;;;;;22.95;10.85;;;;;;;;;;5034745;28;20060;-55
2022/07/14 05:41:44;;;;;;;28.25;12.10;;;;;;;;;;5034952;28;20021;-61
2022/07/14 05:44:10;;;;;;;25.17;12.82;;;;;;;;;;5034550;28;20025;-61
2022/07/14 05:46:36;;;;;;;23.20;11.73;;;;;;;;;;5034273;28;20029;-58
2022/07/14 05:49:03;;;;;;;24.95;12.63;;;;;;;;;;5034192;28;20026;-61
2022/07/14 05:51:28;;;;;;;27.35;11.98;;;;;;;;;;5034109;28;20037;-62
2022/07/14 05:53:55;;;;;;;25.88;11.50;;;;;;;;;;5033087;28;20116;-59
2022/07/14 05:56:21;;;;;;;23.75;11.75;;;;;;;;;;5033232;28;20025;-62
2022/07/14 05:58:47;;;;;;;25.48;12.80;;;;;;;;;;5032742;28;20022;-61
2022/07/14 06:01:14;;;;;;;24.13;11.23;;;;;;;;;;5033917;28;20036;-61
2022/07/14 06:03:40;;;;;;;35.70;12.35;;;;;;;;;;5032934;28;20025;-60
2022/07/14 06:06:08;;;;;;;32.60;12.55;;;;;;;;;;5034280;28;20021;-59
2022/07/14 06:08:34;;;;;;;25.70;11.90;;;;;;;;;;5032825;28;20183;-62
2022/07/14 06:11:01;;;;;;;23.83;11.35;;;;;;;;;;5033558;28;20029;-58
2022/07/14 06:13:28;;;;;;;24.55;13.88;;;;;;;;;;5033543;28;20427;-60
2022/07/14 06:15:58;;;;;;;39.72;13.13;;;;;;;;;;5033539;28;20057;-61
2022/07/14 06:18:24;;;;;;;30.83;13.13;;;;;;;;;;5033358;28;20090;-62
2022/07/14 06:20:50;;;;;;;46.55;16.63;;;;;;;;;;5033238;28;20087;-62
2022/07/14 06:23:16;;;;;;;29.45;13.32;;;;;;;;;;5033537;28;20021;-62
2022/07/14 06:25:42;;;;;;;28.58;11.68;;;;;;;;;;5033426;28;20030;-62
2022/07/14 06:28:08;;;;;;;23.45;10.93;;;;;;;;;;5032936;28;20044;-64
2022/07/14 06:30:34;;;;;;;28.80;14.02;;;;;;;;;;5033197;28;20049;-61
2022/07/14 06:33:01;;;;;;;21.67;11.38;;;;;;;;;;5033396;28;20096;-60
2022/07/14 06:35:27;;;;;;;21.38;11.27;;;;;;;;;;5033738;28;20163;-63
2022/07/14 06:37:54;;;;;;;25.95;11.15;;;;;;;;;;5032994;28;20071;-62
2022/07/14 06:40:20;;;;;;;21.92;11.25;;;;;;;;;;5033184;28;20049;-63
2022/07/14 06:42:46;;;;;;;20.58;11.07;;;;;;;;;;5033528;28;20045;-63
2022/07/14 06:45:12;;;;;;;23.95;10.85;;;;;;;;;;5033146;28;20087;-63
2022/07/14 06:47:38;;;;;;;26.55;10.77;;;;;;;;;;5031779;28;20075;-60
2022/07/14 06:50:05;;;;;;;18.23;10.13;;;;;;;;;;5033294;28;20112;-62
2022/07/14 06:52:31;;;;;;;25.27;10.77;;;;;;;;;;5033060;28;20477;-63
2022/07/14 06:55:01;;;;;;;23.98;10.10;;;;;;;;;;5032922;28;20045;-63
2022/07/14 06:57:27;;;;;;;21.88;11.07;;;;;;;;;;5032746;28;20025;-62
2022/07/14 06:59:56;;;;;;;25.38;10.80;;;;;;;;;;5032915;28;20393;-63
2022/07/14 07:02:22;;;;;;;20.17;10.05;;;;;;;;;;5032880;28;20390;-63
2022/07/14 07:07:36;;;;;;;21.17;9.52;;;;;;;;;;5021477;28;20076;-61
2022/07/14 07:10:02;;;;;;;21.60;10.93;;;;;;;;;;5032321;28;20124;-63
2022/07/14 07:12:28;;;;;;;20.52;9.95;;;;;;;;;;5032567;28;20041;-63
2022/07/14 07:14:54;;;;;;;24.08;10.35;;;;;;;;;;5032723;28;20029;-63
2022/07/14 07:17:20;;;;;;;28.60;10.90;;;;;;;;;;5030792;28;20120;-62
2022/07/14 07:19:46;;;;;;;20.33;10.57;;;;;;;;;;5032401;28;20034;-62
2022/07/14 07:22:12;;;;;;;20.13;10.60;;;;;;;;;;5032352;28;20068;-61
2022/07/14 07:24:38;;;;;;;19.33;10.07;;;;;;;;;;5031850;28;20520;-61
2022/07/14 07:27:05;;;;;;;22.92;10.25;;;;;;;;;;5030801;28;20029;-61
2022/07/14 07:29:31;;;;;;;22.38;10.75;;;;;;;;;;5032560;28;20029;-61
2022/07/14 07:31:57;;;;;;;21.08;10.50;;;;;;;;;;5032535;28;20362;-60
2022/07/14 07:34:23;;;;;;;20.13;10.18;;;;;;;;;;5032318;28;20030;-61
2022/07/14 07:36:49;;;;;;;20.10;9.85;;;;;;;;;;5032186;28;20022;-62
2022/07/14 07:39:15;;;;;;;20.85;10.15;;;;;;;;;;5031748;28;20026;-61
2022/07/14 07:41:41;;;;;;;22.73;10.65;;;;;;;;;;5032229;28;20504;-62
2022/07/14 07:44:08;;;;;;;24.17;11.65;;;;;;;;;;5032070;28;20105;-60
2022/07/14 07:46:34;;;;;;;18.70;10.23;;;;;;;;;;5032182;28;20021;-61
2022/07/14 07:49:00;;;;;;;21.42;10.50;;;;;;;;;;5031730;28;20021;-62
2022/07/14 07:51:26;;;;;;;20.40;9.85;;;;;;;;;;5031909;28;20054;-62
2022/07/14 07:53:52;;;;;;;18.95;9.93;;;;;;;;;;5031835;28;20029;-61
2022/07/14 07:56:18;;;;;;;20.27;10.30;;;;;;;;;;5031931;28;20032;-61
2022/07/14 07:58:44;;;;;;;20.08;9.95;;;;;;;;;;5031695;28;20045;-61
2022/07/14 08:01:10;;;;;;;20.17;9.95;;;;;;;;;;5031829;28;20080;-62
2022/07/14 08:03:36;;;;;;;22.52;10.82;;;;;;;;;;5031706;28;20486;-62
2022/07/14 08:06:02;;;;;;;17.52;10.30;;;;;;;;;;5031627;28;20026;-59
2022/07/14 08:08:28;;;;;;;17.17;9.75;;;;;;;;;;5031630;28;20104;-61
2022/07/14 08:10:54;;;;;;;21.33;11.07;;;;;;;;;;5031870;28;20080;-63
2022/07/14 08:13:20;;;;;;;20.40;10.30;;;;;;;;;;5030266;28;20482;-62
2022/07/14 08:15:46;;;;;;;19.40;10.15;;;;;;;;;;5032022;28;20110;-62
2022/07/14 08:18:12;;;;;;;20.05;10.70;;;;;;;;;;5031022;28;20100;-62
2022/07/14 08:20:38;;;;;;;20.83;10.10;;;;;;;;;;5030475;28;20473;-61
2022/07/14 08:23:05;;;;;;;19.80;10.68;;;;;;;;;;5031575;28;20018;-62
2022/07/14 08:25:32;;;;;;;19.90;9.85;;;;;;;;;;5031961;28;20037;-62
2022/07/14 08:27:58;;;;;;;17.40;10.05;;;;;;;;;;5029719;28;20029;-61
2022/07/14 08:30:24;;;;;;;19.27;9.57;;;;;;;;;;5031560;28;20025;-62
2022/07/14 08:32:52;;;;;;;19.92;10.00;;;;;;;;;;5031677;28;20025;-62
2022/07/14 08:35:19;;;;;;;19.58;10.50;;;;;;;;;;5034084;28;20029;-63
2022/07/14 08:37:46;;;;;;;20.27;10.43;;;;;;;;;;5035183;28;20034;-62
2022/07/14 08:40:13;;;;;;;17.70;9.45;;;;;;;;;;5035839;28;20025;-63
2022/07/14 08:42:42;;;;;;;17.58;9.80;;;;;;;;;;5035808;28;20018;-62
2022/07/14 08:45:09;;;;;;;21.02;9.93;;;;;;;;;;5035930;28;20132;-60
2022/07/14 08:47:35;;;;;;;18.27;10.10;;;;;;;;;;5035216;28;20022;-62
2022/07/14 08:50:05;;;;;;;19.48;10.40;;;;;;;;;;5035397;28;20029;-62
2022/07/14 08:52:32;;;;;;;20.38;11.10;;;;;;;;;;5035448;28;20040;-63
2022/07/14 08:54:58;;;;;;;18.83;9.93;;;;;;;;;;5032923;28;20025;-63
2022/07/14 08:57:24;;;;;;;18.15;10.52;;;;;;;;;;5035163;28;20056;-64
2022/07/14 08:59:50;;;;;;;24.13;10.57;;;;;;;;;;5034534;28;20059;-64
2022/07/14 09:02:16;;;;;;;19.70;11.13;;;;;;;;;;5036231;28;20621;-63
2022/07/14 09:04:46;;;;;;;22.38;10.43;;;;;;;;;;5035731;28;20029;-66
2022/07/14 09:07:12;;;;;;;20.33;11.20;;;;;;;;;;5035664;28;20456;-65
2022/07/14 09:09:39;;;;;;;21.55;11.10;;;;;;;;;;5034166;28;20022;-63
2022/07/14 09:12:09;;;;;;;19.77;10.60;;;;;;;;;;5035400;28;20063;-63
2022/07/14 09:17:25;;;;;;;17.05;11.07;;;;;;;;;;5034966;28;20102;-64
2022/07/14 09:20:02;;;;;;;22.70;11.85;;;;;;;;;;5035134;28;20440;-65
2022/07/14 09:22:28;;;;;;;20.15;10.30;;;;;;;;;;5033906;28;20112;-65
2022/07/14 09:24:54;;;;;;;22.05;10.70;;;;;;;;;;5035098;28;20068;-65
2022/07/14 09:27:21;;;;;;;18.98;10.20;;;;;;;;;;4685036;28;10000452;-60
2022/07/14 09:29:54;;;;;;;18.10;10.43;;;;;;;;;;5029156;28;20033;-66
2022/07/14 09:32:40;;;;;;;19.83;10.30;;;;;;;;;;5031614;28;20021;-65
2022/07/14 09:35:06;;;;;;;17.60;10.52;;;;;;;;;;5031988;28;20098;-65
2022/07/14 09:37:32;;;;;;;21.60;10.82;;;;;;;;;;5031580;28;20033;-65
2022/07/14 09:39:59;;;;;;;18.83;10.35;;;;;;;;;;5032190;28;20037;-65
2022/07/14 09:42:44;;;;;;;19.52;11.10;;;;;;;;;;5033439;28;20030;-66
2022/07/14 09:45:10;;;;;;;19.35;11.02;;;;;;;;;;5033193;28;20101;-64
2022/07/14 09:47:51;;;;;;;19.55;10.70;;;;;;;;;;5033780;28;20462;-65
2022/07/14 09:50:37;;;;;;;20.92;11.30;;;;;;;;;;5032763;28;20056;-65
2022/07/14 09:53:12;;;;;;;19.15;11.10;;;;;;;;;;5027142;28;20120;-64
2022/07/14 09:55:41;;;;;;;21.25;11.48;;;;;;;;;;5032276;28;20441;-64
2022/07/14 09:58:07;;;;;;;;;;;;;;;;;;5033790;28;20033;-63
2022/07/14 10:00:34;;;;;;;16.50;10.38;;;;;;;;;;5034204;28;19944;-64
2022/07/14 10:03:02;;;;;;;18.45;10.80;;;;;;;;;;5032609;28;20079;-63
2022/07/14 10:05:29;;;;;;;18.33;10.70;;;;;;;;;;5034055;28;20390;-65
2022/07/14 10:07:57;;;;;;;16.63;10.20;;;;;;;;;;5031950;28;20079;-65
2022/07/14 10:10:23;;;;;;;18.55;10.80;;;;;;;;;;5033821;28;20052;-64
2022/07/14 10:12:50;;;;;;;18.52;10.73;;;;;;;;;;5033873;28;20426;-65
2022/07/14 10:15:16;;;;;;;17.85;10.57;;;;;;;;;;5033945;28;20025;-65
2022/07/14 10:17:43;;;;;;;18.73;10.70;;;;;;;;;;5032343;28;20028;-64
2022/07/14 10:20:10;;;;;;;19.92;10.82;;;;;;;;;;5033648;28;20018;-65
2022/07/14 10:22:36;;;;;;;17.80;11.07;;;;;;;;;;5033827;28;20026;-64
2022/07/14 10:25:03;;;;;;;18.40;10.73;;;;;;;;;;5034162;28;20079;-64
2022/07/14 10:27:29;;;;;;;18.00;12.07;;;;;;;;;;5032933;28;20398;-64
2022/07/14 10:29:56;;;;;;;17.63;11.20;;;;;;;;;;5032169;28;20025;-64
2022/07/14 10:32:41;;;;;;;18.70;10.63;;;;;;;;;;5031955;28;20040;-64
2022/07/14 10:35:25;;;;;;;16.48;11.20;;;;;;;;;;5033271;28;20101;-64
2022/07/14 10:38:12;;;;;;;19.70;11.23;;;;;;;;;;5033248;28;20045;-65
2022/07/14 10:40:38;;;;;;;17.30;11.55;;;;;;;;;;5022033;28;20029;-65
2022/07/14 10:43:06;;;;;;;19.85;11.25;;;;;;;;;;5033349;28;20025;-64
2022/07/14 10:45:32;;;;;;;18.20;10.90;;;;;;;;;;5033255;28;20048;-64
2022/07/14 10:47:58;;;;;;;16.90;11.00;;;;;;;;;;5033167;28;20033;-65
2022/07/14 10:50:28;;;;;;;17.05;11.13;;;;;;;;;;5033378;28;20025;-63
2022/07/14 10:52:54;;;;;;;21.98;10.52;;;;;;;;;;5033153;28;20021;-63
2022/07/14 10:55:33;;;;;;;18.38;11.40;;;;;;;;;;5033578;28;20024;-65
2022/07/14 10:57:59;;;;;;;17.33;10.90;;;;;;;;;;5031847;28;20022;-65
2022/07/14 11:00:55;;;;;;;17.05;10.80;;;;;;;;;;5033256;28;20343;-64
2022/07/14 11:03:26;;;;;;;18.83;10.98;;;;;;;;;;5032701;28;20052;-64
2022/07/14 11:06:09;;;;;;;17.13;11.10;;;;;;;;;;5032848;28;20083;-63
2022/07/14 11:08:44;;;;;;;21.17;11.30;;;;;;;;;;5032525;28;20036;-63
2022/07/14 11:11:23;;;;;;;17.35;10.93;;;;;;;;;;5033266;28;20028;-64
2022/07/14 11:14:01;;;;;;;17.42;11.85;;;;;;;;;;5032871;28;20029;-61
2022/07/14 11:16:42;;;;;;;17.85;10.88;;;;;;;;;;5031772;28;20121;-64
2022/07/14 11:19:20;;;;;;;17.58;11.30;;;;;;;;;;5032401;28;20389;-64
2022/07/14 11:22:05;;;;;;;16.95;10.90;;;;;;;;;;5032619;28;20021;-64
2022/07/14 11:24:34;;;;;;;17.65;11.30;;;;;;;;;;5032596;28;20025;-64
2022/07/14 11:27:20;;;;;;;18.13;11.23;;;;;;;;;;5032475;28;20035;-64
2022/07/14 11:29:46;;;;;;;17.85;11.02;;;;;;;;;;5032246;28;20490;-65
2022/07/14 11:32:31;;;;;;;18.90;11.20;;;;;;;;;;5031112;28;20433;-65
2022/07/14 11:38:00;;;;;;;16.42;11.20;;;;;;;;;;5016087;28;20033;-65
2022/07/14 11:40:44;;;;;;;19.65;11.60;;;;;;;;;;5032242;28;20040;-64
2022/07/14 11:43:28;;;;;;;17.02;11.13;;;;;;;;;;4335244;28;10000723;-66
2022/07/14 11:45:58;;;;;;;18.45;11.10;;;;;;;;;;5031326;28;20494;-63
2022/07/14 11:48:28;;;;;;;16.48;11.50;;;;;;;;;;5031512;28;20029;-64
2022/07/14 11:51:02;;;;;;;18.88;11.60;;;;;;;;;;5035128;28;20017;-63
2022/07/14 11:53:28;;;;;;;17.20;11.18;;;;;;;;;;5042475;28;20115;-64
2022/07/14 11:55:55;;;;;;;16.02;11.07;;;;;;;;;;5031964;28;20118;-63
2022/07/14 11:58:24;;;;;;;17.00;11.02;;;;;;;;;;5031938;28;20026;-62
2022/07/14 12:00:54;;;;;;;17.73;11.70;;;;;;;;;;5031939;28;20124;-64
2022/07/14 12:03:20;;;;;;;19.42;12.30;;;;;;;;;;5031975;28;20100;-65
2022/07/14 12:05:51;;;;;;;17.98;11.77;;;;;;;;;;5031795;28;20022;-65
2022/07/14 12:08:22;;;;;;;17.38;11.60;;;;;;;;;;5031691;28;20093;-64
2022/07/14 12:10:49;;;;;;;16.85;11.70;;;;;;;;;;5031826;28;20029;-58
2022/07/14 12:13:16;;;;;;;16.48;11.40;;;;;;;;;;5032167;28;20041;-63
2022/07/14 12:15:42;;;;;;;17.17;12.05;;;;;;;;;;5031737;28;20045;-64
2022/07/14 12:18:09;;;;;;;19.17;12.48;;;;;;;;;;5032127;28;20029;-63
2022/07/14 12:20:40;;;;;;;16.05;11.55;;;;;;;;;;5030694;28;20049;-64
2022/07/14 12:23:06;;;;;;;18.23;11.80;;;;;;;;;;4682693;28;10000220;-61
2022/07/14 12:25:42;;;;;;;16.70;11.27;;;;;;;;;;5027698;28;20033;-63
2022/07/14 12:28:10;;;;;;;16.42;11.80;;;;;;;;;;5029455;28;20338;-62
2022/07/14 12:30:52;;;;;;;15.93;11.40;;;;;;;;;;5028467;28;20095;-63
2022/07/14 12:33:38;;;;;;;16.25;11.63;;;;;;;;;;5028533;28;20087;-64
2022/07/14 12:36:10;;;;;;;16.98;11.60;;;;;;;;;;5028765;28;20026;-56
2022/07/14 12:38:38;;;;;;;17.58;11.90;;;;;;;;;;5032693;28;20038;-63
2022/07/14 12:41:05;;;;;;;16.40;11.10;;;;;;;;;;5032969;28;20032;-65
2022/07/14 12:43:32;;;;;;;15.00;10.98;;;;;;;;;;5035342;28;20017;-64
2022/07/14 12:46:06;;;;;;;15.47;11.40;;;;;;;;;;5034535;28;20026;-64
2022/07/14 12:48:33;;;;;;;16.05;11.23;;;;;;;;;;5035804;28;20030;-64
2022/07/14 12:51:18;;;;;;;15.23;11.13;;;;;;;;;;5033209;28;20021;-63
2022/07/14 12:54:01;;;;;;;15.68;11.50;;;;;;;;;;5030515;28;20033;-63
2022/07/14 12:56:28;;;;;;;15.52;11.70;;;;;;;;;;5031515;28;20496;-64
2022/07/14 12:58:56;;;;;;;15.43;11.30;;;;;;;;;;5031151;28;20033;-64
2022/07/14 13:01:24;;;;;;;15.55;11.20;;;;;;;;;;5031371;28;20021;-64
2022/07/14 13:03:50;;;;;;;;;;;;;;;;;;5031656;28;20024;-64
2022/07/14 13:06:16;;;;;;;15.30;11.40;;;;;;;;;;5031498;28;19905;-65
2022/07/14 13:08:42;;;;;;;16.08;11.48;;;;;;;;;;5029693;28;20389;-65
2022/07/14 13:11:10;;;;;;;16.38;11.50;;;;;;;;;;5031036;28;20026;-65
2022/07/14 13:13:37;;;;;;;18.60;12.17;;;;;;;;;;5031666;28;20025;-65
2022/07/14 13:16:19;;;;;;;17.93;12.00;;;;;;;;;;5031068;28;20036;-64
2022/07/14 13:19:04;;;;;;;17.15;11.43;;;;;;;;;;5030729;28;20067;-64
2022/07/14 13:21:45;;;;;;;16.55;11.95;;;;;;;;;;5032195;28;20493;-65
2022/07/14 13:24:15;;;;;;;16.85;11.40;;;;;;;;;;4685057;28;9999996;-64
2022/07/14 13:26:42;;;;;;;16.65;11.55;;;;;;;;;;5031869;28;20026;-63
2022/07/14 13:29:08;;;;;;;15.52;11.30;;;;;;;;;;5031750;28;20029;-64
2022/07/14 13:31:34;;;;;;;17.52;11.25;;;;;;;;;;5032336;28;20029;-64
2022/07/14 13:34:01;;;;;;;15.50;11.73;;;;;;;;;;5032441;28;20022;-64
2022/07/14 13:36:28;;;;;;;18.08;11.38;;;;;;;;;;5031882;28;20029;-64
2022/07/14 13:38:54;;;;;;;16.80;11.30;;;;;;;;;;5031816;28;20091;-64
2022/07/14 13:41:20;;;;;;;15.30;10.93;;;;;;;;;;5032076;28;20037;-63
2022/07/14 13:43:47;;;;;;;16.27;11.48;;;;;;;;;;5031838;28;20030;-63
2022/07/14 13:46:14;;;;;;;17.52;11.70;;;;;;;;;;5031449;28;20032;-64
2022/07/14 13:48:40;;;;;;;15.93;11.20;;;;;;;;;;5031010;28;20029;-64
2022/07/14 13:53:51;;;;;;;18.27;12.30;;;;;;;;;;5033481;28;20064;-64
2022/07/14 13:56:17;;;;;;;15.18;11.40;;;;;;;;;;5034298;28;20033;-63
2022/07/14 13:58:44;;;;;;;15.00;11.35;;;;;;;;;;4685304;28;9999908;-64
2022/07/14 14:01:10;;;;;;;15.63;11.80;;;;;;;;;;5031598;28;20022;-63
2022/07/14 14:03:37;;;;;;;15.77;10.80;;;;;;;;;;5031703;28;20042;-64
2022/07/14 14:06:05;;;;;;;14.85;10.90;;;;;;;;;;5031468;28;20045;-65
2022/07/14 14:08:33;;;;;;;15.50;11.05;;;;;;;;;;5031413;28;20025;-64
2022/07/14 14:10:59;;;;;;;15.63;11.32;;;;;;;;;;5031512;28;20037;-62
2022/07/14 14:13:29;;;;;;;16.08;11.30;;;;;;;;;;5031126;28;20414;-63
2022/07/14 14:15:59;;;;;;;17.77;11.15;;;;;;;;;;5029852;28;20072;-64
2022/07/14 14:18:25;;;;;;;15.27;10.23;;;;;;;;;;5031392;28;20028;-65
2022/07/14 14:20:51;;;;;;;14.60;10.43;;;;;;;;;;5029952;28;20048;-64
2022/07/14 14:23:17;;;;;;;15.90;10.65;;;;;;;;;;5031421;28;20075;-64
2022/07/14 14:25:44;;;;;;;14.85;10.35;;;;;;;;;;5030903;28;20018;-63
2022/07/14 14:28:11;;;;;;;15.20;10.98;;;;;;;;;;5030629;28;20537;-63
2022/07/14 14:30:37;;;;;;;15.43;11.20;;;;;;;;;;5015591;28;20060;-64
2022/07/14 14:33:04;;;;;;;17.17;12.00;;;;;;;;;;5011049;28;20025;-64
2022/07/14 14:35:30;;;;;;;15.75;11.00;;;;;;;;;;5009900;28;20121;-64
2022/07/14 14:37:57;;;;;;;16.38;11.70;;;;;;;;;;5010665;28;20026;-65
2022/07/14 14:40:23;;;;;;;14.93;10.95;;;;;;;;;;5010879;28;20030;-62